Flight Track Log - Related Links

Times and Time Zones

All times are in EDT time to prevent confusion due to time zone crossing. See the CSC8515 flight status page for this flight to view local times or setup timezone preferences in your user account.

Time Position Orientation Groundspeed Altitude Reporting Facility
EDT Latitude Longitude Course Direction KTS MPH feet Rate Location/Type
Mon 06:28:00 AM 30.2962 107.1174 35° Northeast  Level Estimated
Mon 06:29:00 AM 30.3785 107.1860 36° Northeast  Level Estimated
Mon 06:30:00 AM 30.4607 107.2546 36° Northeast  Level Estimated
Mon 06:31:00 AM 30.5429 107.3233 36° Northeast  Level Estimated
Mon 06:32:00 AM 30.6251 107.3922 36° Northeast  Level Estimated
Mon 06:33:00 AM 30.7072 107.4612 36° Northeast  Level Estimated
Mon 06:34:00 AM 30.7893 107.5303 36° Northeast  Level Estimated
Mon 06:35:00 AM 30.8713 107.5995 36° Northeast  Level Estimated
Mon 06:36:00 AM 30.9533 107.6689 36° Northeast  Level Estimated
Mon 06:37:00 AM 31.0353 107.7383 36° Northeast  Level Estimated
Mon 06:38:00 AM 31.1173 107.8079 36° Northeast  Level Estimated
Mon 06:39:00 AM 31.1992 107.8776 36° Northeast  Level Estimated
Mon 06:40:00 AM 31.2810 107.9474 36° Northeast  Level Estimated
Mon 06:41:00 AM 31.3628 108.0173 36° Northeast  Level Estimated
Mon 06:42:00 AM 31.4446 108.0874 36° Northeast  Level Estimated
Mon 06:43:00 AM 31.5264 108.1576 36° Northeast  Level Estimated
Mon 06:44:00 AM 31.6081 108.2279 36° Northeast  Level Estimated
Mon 06:45:00 AM 31.6898 108.2983 36° Northeast  Level Estimated
Mon 06:46:00 AM 31.7714 108.3689 36° Northeast  Level Estimated
Mon 06:47:00 AM 31.8530 108.4396 36° Northeast  Level Estimated
Mon 06:48:00 AM 31.9345 108.5104 36° Northeast  Level Estimated
Mon 06:49:00 AM 32.0160 108.5813 36° Northeast  Level Estimated
Mon 06:50:00 AM 32.0975 108.6523 36° Northeast  Level Estimated
Mon 06:51:00 AM 32.1790 108.7235 36° Northeast  Level Estimated
Mon 06:52:00 AM 32.2603 108.7948 37° Northeast  Level Estimated
Mon 06:53:00 AM 32.3417 108.8663 37° Northeast  Level Estimated
Mon 06:54:00 AM 32.4230 108.9378 37° Northeast  Level Estimated
Mon 06:55:00 AM 32.5043 109.0095 37° Northeast  Level Estimated
Mon 06:56:00 AM 32.5855 109.0813 37° Northeast  Level Estimated
Mon 06:57:00 AM 32.6667 109.1533 37° Northeast  Level Estimated
Mon 06:58:00 AM 32.7479 109.2254 37° Northeast  Level Estimated
Mon 06:59:00 AM 32.8290 109.2976 37° Northeast  Level Estimated
Mon 07:00:00 AM 32.9101 109.3699 37° Northeast  Level Estimated
Mon 07:01:00 AM 32.9911 109.4424 37° Northeast  Level Estimated
Mon 07:02:00 AM 33.0721 109.5150 37° Northeast  Level Estimated
Mon 07:03:00 AM 33.1530 109.5878 37° Northeast  Level Estimated
Mon 07:04:00 AM 33.2339 109.6607 37° Northeast  Level Estimated
Mon 07:05:00 AM 33.3148 109.7337 37° Northeast  Level Estimated
Mon 07:06:00 AM 33.3956 109.8068 37° Northeast  Level Estimated
Mon 07:07:00 AM 33.4764 109.8801 37° Northeast  Level Estimated
Mon 07:08:00 AM 33.5571 109.9536 37° Northeast  Level Estimated
Mon 07:09:00 AM 33.6378 110.0271 37° Northeast  Level Estimated
Mon 07:10:00 AM 33.7184 110.1008 37° Northeast  Level Estimated
Mon 07:11:00 AM 33.7990 110.1747 37° Northeast  Level Estimated
Mon 07:12:00 AM 33.8796 110.2486 37° Northeast  Level Estimated
Mon 07:13:00 AM 33.9601 110.3228 37° Northeast  Level Estimated
Mon 07:14:00 AM 34.0406 110.3970 37° Northeast  Level Estimated
Mon 07:15:00 AM 34.1210 110.4714 37° Northeast  Level Estimated
Mon 07:16:00 AM 34.2013 110.5460 37° Northeast  Level Estimated
Mon 07:17:00 AM 34.2817 110.6206 38° Northeast  Level Estimated
Mon 07:18:00 AM 34.3620 110.6955 38° Northeast  Level Estimated
Mon 07:19:00 AM 34.4422 110.7704 38° Northeast  Level Estimated
Mon 07:20:00 AM 34.5224 110.8456 38° Northeast  Level Estimated
Mon 07:21:00 AM 34.6025 110.9208 38° Northeast  Level Estimated
Mon 07:22:00 AM 34.6826 110.9962 38° Northeast  Level Estimated
Mon 07:23:00 AM 34.7627 111.0718 38° Northeast  Level Estimated
Mon 07:24:00 AM 34.8427 111.1475 38° Northeast  Level Estimated
Mon 07:25:00 AM 34.9227 111.2233 38° Northeast  Level Estimated
Mon 07:26:00 AM 35.0026 111.2993 38° Northeast  Level Estimated
Mon 07:27:00 AM 35.0825 111.3754 38° Northeast  Level Estimated
Mon 07:28:00 AM 35.1623 111.4517 38° Northeast  Level Estimated
Mon 07:29:00 AM 35.2420 111.5282 38° Northeast  Level Estimated
Mon 07:30:00 AM 35.3218 111.6048 38° Northeast  Level Estimated
Mon 07:31:00 AM 35.4014 111.6815 38° Northeast  Level Estimated
Mon 07:32:00 AM 35.4811 111.7584 38° Northeast  Level Estimated
Mon 07:33:00 AM 35.5606 111.8354 38° Northeast  Level Estimated
Mon 07:34:00 AM 35.6402 111.9126 38° Northeast  Level Estimated
Mon 07:35:00 AM 35.7196 111.9900 38° Northeast  Level Estimated
Mon 07:36:00 AM 35.7991 112.0675 38° Northeast  Level Estimated
Mon 07:37:00 AM 35.8784 112.1452 38° Northeast  Level Estimated
Mon 07:38:00 AM 35.9578 112.2230 38° Northeast  Level Estimated
Mon 07:39:00 AM 36.0371 112.3009 38° Northeast  Level Estimated
Mon 07:40:00 AM 36.1163 112.3791 39° Northeast  Level Estimated
Mon 07:41:00 AM 36.1955 112.4574 39° Northeast  Level Estimated
Mon 07:42:00 AM 36.2746 112.5358 39° Northeast  Level Estimated
Mon 07:43:00 AM 36.3537 112.6144 39° Northeast  Level Estimated
Mon 07:44:00 AM 36.4327 112.6932 39° Northeast  Level Estimated
Mon 07:45:00 AM 36.5117 112.7721 39° Northeast  Level Estimated
Mon 07:46:00 AM 36.5906 112.8512 39° Northeast  Level Estimated
Mon 07:47:00 AM 36.6694 112.9305 39° Northeast  Level Estimated
Mon 07:48:00 AM 36.7483 113.0099 39° Northeast  Level Estimated
Mon 07:49:00 AM 36.8270 113.0894 39° Northeast  Level Estimated
Mon 07:50:00 AM 36.9057 113.1692 39° Northeast  Level Estimated
Mon 07:51:00 AM 36.9844 113.2491 39° Northeast  Level Estimated
Mon 07:52:00 AM 37.0630 113.3291 39° Northeast  Level Estimated
Mon 07:53:00 AM 37.1415 113.4094 39° Northeast  Level Estimated
Mon 07:54:00 AM 37.2200 113.4898 39° Northeast  Level Estimated
Mon 07:55:00 AM 37.2985 113.5704 39° Northeast  Level Estimated
Mon 07:56:00 AM 37.3769 113.6511 39° Northeast  Level Estimated
Mon 07:57:00 AM 37.4552 113.7320 39° Northeast  Level Estimated
Mon 07:58:00 AM 37.5335 113.8131 39° Northeast  Level Estimated
Mon 07:59:00 AM 37.6117 113.8943 39° Northeast  Level Estimated
Mon 07:59:56 AM 38.5080 115.4548 49° Northeast 405 466 15,100  Level FlightAware ADS-B
Mon 08:00:00 AM 37.6898 113.9758 39° Northeast  Level Estimated
Mon 08:00:18 AM 38.5355 115.4963 50° Northeast 404 465 14,800  Level FlightAware ADS-B
Mon 08:01:17 AM 38.6056 115.6029 49° Northeast 405 466 14,800  Level FlightAware ADS-B
Mon 08:01:47 AM 38.6403 115.6555 50° Northeast 406 467 14,800  Level FlightAware ADS-B
Mon 08:02:05 AM 38.6639 115.6917 50° Northeast 406 467 14,800  Level FlightAware ADS-B
Mon 08:02:46 AM 38.7129 115.7663 50° Northeast 405 466 14,800  Level FlightAware ADS-B
Mon 08:03:11 AM 38.7444 115.8145 50° Northeast 406 467 14,800  Level FlightAware ADS-B
Mon 08:03:47 AM 38.7869 115.8795 50° Northeast 405 466 14,800  Level FlightAware ADS-B
Mon 08:04:16 AM 38.8228 115.9346 50° Northeast 403 464 14,800  Level FlightAware ADS-B
Mon 08:04:47 AM 38.8588 115.9898 50° Northeast 403 464 14,800  Level FlightAware ADS-B
Mon 08:05:16 AM 38.8950 116.0455 50° Northeast 406 467 14,800  Level FlightAware ADS-B
Mon 08:05:47 AM 38.9307 116.1006 50° Northeast 407 468 14,800  Level FlightAware ADS-B
Mon 08:06:16 AM 38.9660 116.1550 50° Northeast 406 467 14,800  Level FlightAware ADS-B
Mon 08:06:46 AM 39.0029 116.2124 50° Northeast 409 471 14,800  Level FlightAware ADS-B
Mon 08:07:17 AM 39.0399 116.2697 50° Northeast 409 471 14,800  Level FlightAware ADS-B
Mon 08:07:47 AM 39.0765 116.3263 50° Northeast 412 474 14,800  Level FlightAware ADS-B
Mon 08:08:22 AM 39.1220 116.3878 34° Northeast 412 474 14,800  Level FlightAware ADS-B
Mon 08:08:30 AM 39.1363 116.3977 23° Northeast 411 473 14,800 -300 Level FlightAware ADS-B
Mon 08:08:42 AM 39.1574 116.4054 North 405 466 14,700 -1,143 Descending FlightAware ADS-B
Mon 08:09:12 AM 39.2123 116.4092 North 384 442 14,000 -1,220 Descending FlightAware ADS-B
Mon 08:09:41 AM 39.2639 116.4123 North 359 413 13,500 -900 Descending FlightAware ADS-B
Mon 08:10:12 AM 39.3117 116.4152 North 336 387 13,100 -700 Descending FlightAware ADS-B
Mon 08:10:41 AM 39.3539 116.4177 North 314 361 12,800 -1,017 Descending FlightAware ADS-B
Mon 08:11:11 AM 39.3991 116.4205 North 300 345 12,100 -1,770 Descending FlightAware ADS-B
Mon 08:11:42 AM 39.4402 116.4230 North 298 343 11,000 -2,100 Descending FlightAware ADS-B
Mon 08:12:11 AM 39.4801 116.4343 29° Northeast 296 341 10,000 -2,057 Descending FlightAware ADS-B
Mon 08:12:17 AM 39.4862 116.4403 34° Northeast 296 341 9,800 -2,182 Descending FlightAware ADS-B
Mon 08:12:22 AM 39.4911 116.4458 41° Northeast 295 339 9,600 -2,211 Descending FlightAware ADS-B
Mon 08:12:36 AM 39.5059 116.4638 43° Northeast 295 339 9,100 -1,655 Descending FlightAware ADS-B
Mon 08:12:51 AM 39.5209 116.4825 43° Northeast 295 339 8,800 -1,154 Descending FlightAware ADS-B
Mon 08:13:02 AM 39.5297 116.4923 38° Northeast 281 323 8,600 -750 Descending FlightAware ADS-B
Mon 08:13:07 AM 39.5365 116.4980 31° Northeast 276 318 8,600 -632 Level FlightAware ADS-B
Mon 08:13:21 AM 39.5527 116.5081 23° Northeast 268 308 8,400 -706 Descending FlightAware ADS-B
Mon 08:13:41 AM 39.5754 116.5208 23° Northeast 253 291 8,200 -333 Descending FlightAware ADS-B
Mon 08:13:57 AM 39.5912 116.5296 23° Northeast 241 277 8,200 -343 Level FlightAware ADS-B
Mon 08:14:16 AM 39.6114 116.5409 23° Northeast 234 269 8,000 -706 Descending FlightAware ADS-B
Mon 08:14:31 AM 39.6258 116.5491 23° Northeast 234 269 7,800 -774 Descending FlightAware ADS-B
Mon 08:14:47 AM 39.6406 116.5576 23° Northeast 234 269 7,600 -968 Descending FlightAware ADS-B
Mon 08:15:02 AM 39.6548 116.5658 24° Northeast 225 259 7,300 -1,034 Descending FlightAware ADS-B
Mon 08:15:16 AM 39.6684 116.5737 24° Northeast 224 258 7,100 -1,034 Descending FlightAware ADS-B
Mon 08:15:31 AM 39.6832 116.5824 24° Northeast 224 258 6,800 -968 Descending FlightAware ADS-B
Mon 08:15:47 AM 39.6977 116.5909 24° Northeast 223 257 6,600 -800 Descending FlightAware ADS-B
Mon 08:16:01 AM 39.7110 116.5986 24° Northeast 221 254 6,400 -800 Descending FlightAware ADS-B
Mon 08:16:17 AM 39.7251 116.6068 23° Northeast 219 252 6,200 -1,000 Descending FlightAware ADS-B
Mon 08:16:31 AM 39.7396 116.6151 23° Northeast 219 252 5,900 -1,034 Descending FlightAware ADS-B
Mon 08:16:46 AM 39.7537 116.6230 23° Northeast 219 252 5,700 -1,000 Descending FlightAware ADS-B
Mon 08:17:01 AM 39.7667 116.6306 23° Northeast 218 251 5,400 -857 Descending FlightAware ADS-B
Mon 08:17:21 AM 39.7852 116.6385 North 217 250 5,200 -514 Descending FlightAware ADS-B
Mon 08:17:36 AM 39.8009 116.6387 North 217 250 5,100 -581 Descending FlightAware ADS-B
Mon 08:17:52 AM 39.8167 116.6373 North 217 250 4,900 -800 Descending FlightAware ADS-B
Mon 08:18:06 AM 39.8305 116.6354 North 217 250 4,700 -1,034 Descending FlightAware ADS-B
Mon 08:18:21 AM 39.8442 116.6331 354° North 206 237 4,400 -1,200 Descending FlightAware ADS-B
Mon 08:18:36 AM 39.8593 116.6308 354° North 207 238 4,100 -1,200 Descending FlightAware ADS-B
Mon 08:18:51 AM 39.8739 116.6285 354° North 207 238 3,800 -1,200 Descending FlightAware ADS-B
Mon 08:19:06 AM 39.8878 116.6264 354° North 207 238 3,500 -1,200 Descending FlightAware ADS-B
Mon 08:19:21 AM 39.9025 116.6241 354° North 203 234 3,200 -968 Descending FlightAware ADS-B
Mon 08:19:37 AM 39.9160 116.6219 354° North 189 217 3,000 -800 Descending FlightAware ADS-B
Mon 08:19:51 AM 39.9258 116.6204 354° North 181 208 2,800 -857 Descending FlightAware ADS-B
Mon 08:20:12 AM 39.9449 116.6174 354° North 170 196 2,500 -857 Descending FlightAware ADS-B
Mon 08:20:26 AM 39.9547 116.6159 354° North 157 181 2,300 -857 Descending FlightAware ADS-B
Mon 08:22:00 AM 40.0801 116.5846 349° North  Level Estimated
Mon 08:23:00 AM 40.0801 116.5846 North  Level Estimated
Mon 08:24:00 AM 40.0801 116.5846 North  Level Estimated
Mon 08:25:00 AM 40.0801 116.5846 North  Level Estimated
Mon 08:26:00 AM 40.0801 116.5846 North  Level Estimated
Mon 08:27:00 AM 40.0801 116.5846 North  Level Estimated
Mon 08:28:00 AM 40.0801 116.5846 North  Level Estimated

Login

Don't have an account? Register now (free) for customized features, flight alerts, and more!